createdAt,value
2022-10-28T00:02:17.257Z,86.92
2022-10-28T00:04:47.662Z,87.05
2022-10-28T00:07:18.452Z,87.10
2022-10-28T00:09:49.348Z,87.11
2022-10-28T00:12:19.773Z,87.24
2022-10-28T00:14:50.171Z,87.34
2022-10-28T00:17:21.004Z,87.43
2022-10-28T00:19:51.391Z,87.52
2022-10-28T00:22:21.867Z,87.53
2022-10-28T00:24:52.314Z,87.62
2022-10-28T00:27:22.764Z,87.70
2022-10-28T00:29:53.506Z,87.81
2022-10-28T00:32:24.282Z,87.85
2022-10-28T00:34:55.438Z,87.92
2022-10-28T00:37:26.432Z,88.07
2022-10-28T00:39:56.754Z,88.22
2022-10-28T00:42:27.610Z,88.37
2022-10-28T00:45:00.448Z,88.54
2022-10-28T00:47:52.442Z,88.66
2022-10-28T00:50:44.521Z,88.63
2022-10-28T00:53:18.271Z,88.59
2022-10-28T00:55:50.710Z,88.47
2022-10-28T00:58:23.609Z,88.53
2022-10-28T01:00:54.927Z,88.64
2022-10-28T01:03:26.102Z,88.69
2022-10-28T01:05:58.525Z,88.44
2022-10-28T01:08:29.099Z,88.27
2022-10-28T01:11:13.329Z,88.24
2022-10-28T01:13:54.025Z,88.42
2022-10-28T01:16:34.164Z,88.43
2022-10-28T01:19:30.466Z,88.54
2022-10-28T01:22:11.196Z,88.52
2022-10-28T01:25:06.389Z,88.47
2022-10-28T01:28:03.359Z,88.22
2022-10-28T01:30:46.048Z,88.31
2022-10-28T01:33:23.933Z,88.46
2022-10-28T01:35:58.839Z,88.37
2022-10-28T01:38:36.777Z,88.49
2022-10-28T01:41:09.534Z,88.48
2022-10-28T01:43:50.048Z,88.51
2022-10-28T01:46:26.801Z,88.46
2022-10-28T01:49:01.219Z,88.57
2022-10-28T01:51:36.902Z,88.61
2022-10-28T01:54:10.263Z,88.52
2022-10-28T01:56:44.103Z,88.63
2022-10-28T01:59:18.468Z,88.63
2022-10-28T02:01:49.322Z,88.66
2022-10-28T02:04:20.484Z,88.61
2022-10-28T02:06:55.450Z,88.67
2022-10-28T02:09:40.549Z,88.69
2022-10-28T02:12:29.741Z,88.76
2022-10-28T02:15:28.622Z,88.65
2022-10-28T02:18:11.458Z,88.75
2022-10-28T02:20:48.985Z,88.71
2022-10-28T02:23:33.289Z,88.76
2022-10-28T02:26:10.980Z,88.98
2022-10-28T02:28:41.912Z,89.13
2022-10-28T02:31:23.639Z,89.06
2022-10-28T02:33:59.558Z,89.24
2022-10-28T02:36:33.707Z,89.34
2022-10-28T02:39:07.456Z,89.31
2022-10-28T02:41:45.104Z,89.30
2022-10-28T02:44:19.389Z,89.55
2022-10-28T02:46:52.436Z,89.70
2022-10-28T02:49:24.861Z,89.63
2022-10-28T02:51:59.577Z,89.61
2022-10-28T02:54:36.670Z,89.67
2022-10-28T02:57:11.705Z,89.62
2022-10-28T02:59:42.617Z,89.69
2022-10-28T03:02:13.027Z,89.62
2022-10-28T03:04:43.823Z,89.62
2022-10-28T03:07:14.419Z,89.51
2022-10-28T03:09:45.034Z,89.51
2022-10-28T03:12:15.450Z,89.49
2022-10-28T03:14:45.757Z,89.38
2022-10-28T03:17:16.474Z,89.39
2022-10-28T03:19:46.800Z,89.46
2022-10-28T03:22:17.425Z,89.46
2022-10-28T03:24:48.000Z,89.45
2022-10-28T03:27:18.678Z,89.36
2022-10-28T03:29:49.296Z,89.18
2022-10-28T03:32:19.717Z,89.14
2022-10-28T03:34:50.070Z,89.02
2022-10-28T03:37:20.428Z,88.88
2022-10-28T03:39:50.873Z,88.93
2022-10-28T03:42:21.210Z,88.86
2022-10-28T03:44:51.600Z,88.75
2022-10-28T03:47:22.308Z,88.77
2022-10-28T03:49:52.687Z,88.71
2022-10-28T03:52:23.026Z,88.66
2022-10-28T03:54:53.332Z,88.60
2022-10-28T03:57:23.680Z,88.53
2022-10-28T03:59:54.005Z,88.53
2022-10-28T04:02:24.559Z,88.41
2022-10-28T04:04:55.480Z,88.38
2022-10-28T04:07:25.864Z,88.35
2022-10-28T04:09:56.552Z,88.28
2022-10-28T04:12:27.424Z,88.24
2022-10-28T04:14:58.320Z,88.34
2022-10-28T04:17:28.970Z,88.36
2022-10-28T04:19:59.392Z,88.38
2022-10-28T04:22:30.024Z,88.32
2022-10-28T04:25:00.382Z,88.33
2022-10-28T04:27:31.184Z,88.34
2022-10-28T04:30:02.153Z,88.34
2022-10-28T04:32:32.653Z,88.37
2022-10-28T04:35:03.270Z,88.38
2022-10-28T04:37:34.645Z,88.62
2022-10-28T04:40:05.866Z,88.47
2022-10-28T04:42:36.675Z,88.43
2022-10-28T04:45:09.065Z,88.59
2022-10-28T04:47:40.135Z,88.52
2022-10-28T04:50:11.636Z,88.51
2022-10-28T04:52:42.198Z,88.36
2022-10-28T04:55:13.225Z,88.37
2022-10-28T04:57:43.633Z,88.62
2022-10-28T05:00:15.861Z,88.66
2022-10-28T05:02:46.347Z,88.68
2022-10-28T05:07:53.489Z,88.61
2022-10-28T05:10:24.717Z,88.65
2022-10-28T05:12:55.470Z,88.63
2022-10-28T05:15:27.412Z,88.56
2022-10-28T05:17:57.805Z,88.57
2022-10-28T05:20:28.933Z,88.51
2022-10-28T05:22:59.369Z,88.32
2022-10-28T05:25:30.407Z,88.25
2022-10-28T05:28:02.008Z,88.14
2022-10-28T05:30:32.725Z,88.11
2022-10-28T05:33:03.807Z,88.13
2022-10-28T05:35:34.480Z,88.05
2022-10-28T05:38:05.461Z,88.12
2022-10-28T05:40:35.833Z,88.10
2022-10-28T05:43:09.328Z,88.06
2022-10-28T05:45:40.013Z,88.07
2022-10-28T05:48:10.702Z,88.02
2022-10-28T05:50:41.163Z,87.99
2022-10-28T05:53:11.559Z,88.06
2022-10-28T05:55:46.785Z,88.10
2022-10-28T05:58:18.694Z,88.17
2022-10-28T06:00:49.046Z,88.11
2022-10-28T06:03:19.791Z,88.10
2022-10-28T06:05:50.626Z,88.02
2022-10-28T06:08:21.072Z,87.97
2022-10-28T06:10:54.147Z,87.88
2022-10-28T06:13:24.925Z,87.90
2022-10-28T06:15:56.599Z,87.89
2022-10-28T06:18:27.849Z,87.80
2022-10-28T06:20:58.988Z,87.85
2022-10-28T06:23:29.801Z,87.85
2022-10-28T06:26:03.445Z,87.84
2022-10-28T06:28:34.526Z,87.84
2022-10-28T06:31:06.983Z,87.97
2022-10-28T06:33:37.582Z,87.90
2022-10-28T06:36:09.833Z,88.05
2022-10-28T06:38:40.507Z,88.07
2022-10-28T06:41:10.826Z,88.21
2022-10-28T06:43:41.216Z,88.23
2022-10-28T06:46:13.107Z,88.31
2022-10-28T06:48:45.783Z,88.35
2022-10-28T06:51:17.116Z,88.30
2022-10-28T06:53:51.462Z,88.50
2022-10-28T06:56:22.225Z,88.64
2022-10-28T06:58:54.489Z,88.66
2022-10-28T07:01:25.615Z,88.64
2022-10-28T07:03:56.176Z,88.74
2022-10-28T07:06:27.368Z,88.67
2022-10-28T07:08:58.141Z,88.69
2022-10-28T07:11:28.793Z,88.59
2022-10-28T07:13:59.515Z,88.67
2022-10-28T07:16:30.379Z,88.58
2022-10-28T07:19:01.479Z,88.51
2022-10-28T07:21:32.515Z,88.74
2022-10-28T07:24:03.598Z,88.86
2022-10-28T07:26:34.797Z,88.94
2022-10-28T07:29:05.233Z,89.34
2022-10-28T07:31:36.299Z,89.50
2022-10-28T07:34:06.785Z,89.35
2022-10-28T07:36:37.907Z,89.35
2022-10-28T07:39:08.368Z,89.42
2022-10-28T07:41:39.924Z,89.54
2022-10-28T07:44:10.262Z,89.39
2022-10-28T07:46:40.862Z,89.27
2022-10-28T07:49:11.531Z,89.02
2022-10-28T07:51:41.915Z,89.05
2022-10-28T07:54:12.923Z,88.81
2022-10-28T07:56:43.525Z,88.68
2022-10-28T07:59:14.080Z,88.51
2022-10-28T08:01:44.969Z,88.13
2022-10-28T08:04:15.503Z,87.75
2022-10-28T08:06:47.022Z,87.43
2022-10-28T08:09:18.809Z,87.24
2022-10-28T08:11:49.198Z,86.97
2022-10-28T08:14:20.199Z,86.64
2022-10-28T08:16:51.201Z,86.47
2022-10-28T08:19:21.975Z,86.35
2022-10-28T08:21:53.594Z,86.36
2022-10-28T08:24:24.031Z,86.07
2022-10-28T08:26:54.932Z,85.86
2022-10-28T08:29:29.095Z,85.63
2022-10-28T08:32:00.435Z,85.41
2022-10-28T08:34:31.373Z,85.26
2022-10-28T08:37:01.901Z,85.03
2022-10-28T08:39:32.468Z,84.72
2022-10-28T08:42:22.639Z,84.38
2022-10-28T08:45:05.611Z,84.22
2022-10-28T08:47:46.652Z,84.20
2022-10-28T08:50:19.933Z,84.17
2022-10-28T08:52:57.156Z,84.28
2022-10-28T08:55:34.278Z,84.36
2022-10-28T08:58:08.847Z,84.12
2022-10-28T09:00:41.012Z,84.23
2022-10-28T09:03:20.488Z,83.91
2022-10-28T09:05:56.212Z,83.76
2022-10-28T09:08:28.702Z,83.36
2022-10-28T09:11:08.251Z,83.32
2022-10-28T09:13:54.403Z,83.17
2022-10-28T09:16:37.350Z,82.98
2022-10-28T09:19:21.029Z,82.38
2022-10-28T09:21:58.992Z,82.53
2022-10-28T09:24:39.090Z,82.53
2022-10-28T09:27:19.179Z,82.21
2022-10-28T09:29:58.378Z,82.26
2022-10-28T09:32:36.752Z,81.94
2022-10-28T09:35:12.759Z,81.37
2022-10-28T09:37:47.114Z,80.84
2022-10-28T09:40:22.000Z,80.66
2022-10-28T09:43:03.301Z,80.33
2022-10-28T09:45:38.908Z,80.28
2022-10-28T09:48:20.304Z,80.00
2022-10-28T09:50:54.121Z,79.64
2022-10-28T09:53:36.273Z,79.52
2022-10-28T09:58:45.567Z,79.16
2022-10-28T10:01:18.120Z,78.56
2022-10-28T10:03:51.253Z,78.39
2022-10-28T10:06:25.967Z,77.90
2022-10-28T10:08:57.756Z,77.72
2022-10-28T10:11:33.466Z,77.75
2022-10-28T10:14:09.822Z,77.49
2022-10-28T10:16:46.286Z,77.38
2022-10-28T10:19:16.896Z,77.45
2022-10-28T10:21:50.127Z,77.25
2022-10-28T10:24:30.773Z,77.35
2022-10-28T10:27:05.211Z,77.68
2022-10-28T10:29:37.813Z,77.55
2022-10-28T10:32:18.753Z,77.14
2022-10-28T10:34:57.923Z,76.89
2022-10-28T10:37:30.491Z,76.77
2022-10-28T10:40:18.807Z,75.45
2022-10-28T10:43:09.561Z,74.63
2022-10-28T10:45:39.932Z,74.54
2022-10-28T10:48:14.871Z,74.44
2022-10-28T10:50:47.337Z,74.07
2022-10-28T10:53:25.109Z,73.46
2022-10-28T10:55:58.935Z,73.09
2022-10-28T10:58:32.158Z,73.09
2022-10-28T11:01:05.428Z,72.91
2022-10-28T11:03:39.154Z,72.78
2022-10-28T11:06:24.825Z,72.95
2022-10-28T11:09:01.387Z,72.94
2022-10-28T11:11:39.543Z,72.38
2022-10-28T11:14:25.390Z,72.59
2022-10-28T11:16:57.534Z,72.30
2022-10-28T11:19:32.805Z,71.87
2022-10-28T11:22:23.016Z,71.68
2022-10-28T11:25:13.722Z,71.46
2022-10-28T11:27:56.377Z,71.51
2022-10-28T11:30:41.807Z,71.05
2022-10-28T11:33:30.074Z,71.11
2022-10-28T11:36:12.634Z,70.60
2022-10-28T11:39:14.126Z,70.54
2022-10-28T11:41:58.030Z,70.90
2022-10-28T11:44:42.320Z,69.91
2022-10-28T11:47:31.661Z,70.05
2022-10-28T11:50:29.985Z,69.60
2022-10-28T11:53:26.526Z,69.22
2022-10-28T11:56:04.900Z,69.40
2022-10-28T11:58:45.079Z,69.22
2022-10-28T12:01:35.065Z,69.16
2022-10-28T12:04:21.562Z,69.43
2022-10-28T12:07:13.883Z,69.47
2022-10-28T12:09:58.727Z,69.58
2022-10-28T12:12:39.737Z,69.55
2022-10-28T12:15:22.838Z,69.63
2022-10-28T12:18:01.131Z,69.53
2022-10-28T12:20:36.477Z,69.68
2022-10-28T12:23:11.567Z,69.65
2022-10-28T12:25:44.811Z,69.62
2022-10-28T12:28:21.825Z,69.38
2022-10-28T12:30:54.772Z,69.22
2022-10-28T12:33:28.340Z,68.95
2022-10-28T12:36:21.726Z,69.26
2022-10-28T12:39:02.007Z,68.68
2022-10-28T12:41:48.216Z,69.23
2022-10-28T12:44:22.221Z,69.32
2022-10-28T12:47:04.167Z,69.20
2022-10-28T12:49:45.503Z,68.94
2022-10-28T12:52:28.274Z,68.44
2022-10-28T12:55:04.418Z,68.40
2022-10-28T12:57:38.279Z,67.63
2022-10-28T13:00:17.101Z,68.09
2022-10-28T13:02:55.230Z,67.61
2022-10-28T13:05:31.691Z,67.16
2022-10-28T13:08:28.120Z,67.10
2022-10-28T13:11:20.352Z,66.87
2022-10-28T13:13:56.699Z,66.77
2022-10-28T13:16:43.216Z,66.51
2022-10-28T13:19:39.780Z,66.76
2022-10-28T13:22:40.598Z,66.74
2022-10-28T13:25:28.572Z,66.46
2022-10-28T13:28:01.000Z,66.23
2022-10-28T13:30:32.468Z,65.86
2022-10-28T13:33:09.853Z,66.07
2022-10-28T13:35:38.791Z,66.39
2022-10-28T13:38:14.285Z,66.30
2022-10-28T13:41:22.222Z,66.55
2022-10-28T13:44:22.361Z,66.57
2022-10-28T13:47:27.034Z,66.62
2022-10-28T13:50:34.142Z,66.35
2022-10-28T13:53:42.792Z,66.56
2022-10-28T13:56:32.743Z,66.70
2022-10-28T13:59:17.021Z,66.38
2022-10-28T14:02:28.463Z,66.63
2022-10-28T14:04:59.797Z,66.86
2022-10-28T14:07:32.091Z,66.89
2022-10-28T14:10:20.492Z,67.19
2022-10-28T14:12:56.071Z,67.39
2022-10-28T14:15:30.044Z,67.88
2022-10-28T14:18:10.184Z,68.20
2022-10-28T14:20:59.001Z,68.58
2022-10-28T14:24:07.866Z,68.89
2022-10-28T14:27:09.848Z,68.81
2022-10-28T14:29:47.489Z,68.89
2022-10-28T14:32:45.436Z,69.20
2022-10-28T14:35:39.779Z,69.43
2022-10-28T14:38:41.237Z,69.64
2022-10-28T14:41:27.757Z,69.54
2022-10-28T14:44:11.715Z,69.54
2022-10-28T14:46:56.417Z,69.47
2022-10-28T14:49:29.889Z,69.69
2022-10-28T14:52:05.575Z,69.71
2022-10-28T14:54:45.541Z,70.04
2022-10-28T14:57:22.173Z,70.09
2022-10-28T14:59:53.804Z,70.10
2022-10-28T15:02:26.386Z,69.91
2022-10-28T15:05:05.577Z,69.83
2022-10-28T15:07:38.281Z,69.81
2022-10-28T15:10:23.717Z,69.76
2022-10-28T15:12:57.350Z,69.68
2022-10-28T15:15:29.975Z,69.78
2022-10-28T15:18:01.021Z,69.59
2022-10-28T15:20:34.788Z,69.50
2022-10-28T15:23:21.911Z,69.49
2022-10-28T15:26:04.432Z,69.76
2022-10-28T15:28:35.412Z,69.71
2022-10-28T15:31:06.128Z,69.86
2022-10-28T15:33:40.691Z,69.78
2022-10-28T15:36:18.444Z,70.15
2022-10-28T15:38:49.832Z,70.19
2022-10-28T15:41:44.863Z,70.18
2022-10-28T15:44:34.428Z,70.49
2022-10-28T15:47:16.709Z,70.62
2022-10-28T15:49:58.356Z,70.86
2022-10-28T15:52:37.969Z,70.80
2022-10-28T15:55:41.558Z,71.05
2022-10-28T15:58:39.006Z,71.23
2022-10-28T16:01:28.343Z,71.46
2022-10-28T16:03:59.138Z,71.52
2022-10-28T16:06:33.611Z,71.62
2022-10-28T16:09:16.999Z,71.68
2022-10-28T16:11:50.526Z,71.76
2022-10-28T16:14:39.168Z,71.94
2022-10-28T16:17:15.528Z,72.12
2022-10-28T16:19:51.553Z,72.02
2022-10-28T16:22:24.025Z,72.14
2022-10-28T16:24:56.090Z,72.13
2022-10-28T16:27:28.013Z,72.15
2022-10-28T16:29:58.666Z,72.15
2022-10-28T16:32:31.865Z,72.15
2022-10-28T16:35:05.023Z,72.37
2022-10-28T16:37:41.689Z,72.53
2022-10-28T16:40:37.674Z,72.61
2022-10-28T16:43:06.186Z,72.75
2022-10-28T16:45:36.654Z,72.88
2022-10-28T16:48:10.399Z,72.89
2022-10-28T16:50:42.072Z,73.10
2022-10-28T16:53:14.727Z,72.98
2022-10-28T16:55:45.496Z,72.86
2022-10-28T16:58:16.283Z,73.01
2022-10-28T17:00:46.922Z,72.94
2022-10-28T17:03:17.355Z,73.00
2022-10-28T17:05:47.792Z,73.02
2022-10-28T17:08:30.734Z,73.01
2022-10-28T17:11:09.968Z,73.06
2022-10-28T17:13:41.582Z,73.12
2022-10-28T17:16:12.915Z,73.08
2022-10-28T17:18:44.897Z,73.12
2022-10-28T17:21:15.623Z,73.26
2022-10-28T17:23:46.550Z,73.38
2022-10-28T17:26:17.212Z,73.29
2022-10-28T17:28:51.638Z,73.26
2022-10-28T17:31:25.066Z,73.26
2022-10-28T17:33:56.961Z,73.31
2022-10-28T17:36:27.983Z,73.41
2022-10-28T17:38:58.755Z,73.37
2022-10-28T17:41:29.157Z,73.26
2022-10-28T17:43:59.891Z,73.33
2022-10-28T17:46:30.992Z,73.24
2022-10-28T17:49:08.353Z,73.20
2022-10-28T17:51:39.008Z,73.13
2022-10-28T17:54:09.877Z,73.05
2022-10-28T17:56:42.119Z,73.07
2022-10-28T17:59:13.172Z,72.93
2022-10-28T18:01:44.470Z,72.73
2022-10-28T18:04:15.418Z,72.71
2022-10-28T18:06:46.485Z,72.51
2022-10-28T18:09:17.180Z,72.48
2022-10-28T18:11:49.288Z,72.50
2022-10-28T18:14:20.223Z,72.41
2022-10-28T18:16:58.863Z,72.34
2022-10-28T18:19:29.341Z,72.24
2022-10-28T18:21:59.741Z,72.22
2022-10-28T18:24:30.829Z,72.02
2022-10-28T18:27:01.554Z,72.03
2022-10-28T18:29:31.928Z,71.99
2022-10-28T18:32:04.543Z,72.02
2022-10-28T18:34:35.083Z,72.01
2022-10-28T18:37:08.387Z,72.14
2022-10-28T18:39:39.208Z,72.10
2022-10-28T18:42:12.224Z,72.12
2022-10-28T18:44:43.259Z,72.13
2022-10-28T18:47:14.028Z,72.27
2022-10-28T18:49:45.751Z,72.36
2022-10-28T18:52:17.382Z,72.39
2022-10-28T18:54:48.781Z,72.47
2022-10-28T18:57:22.309Z,72.49
2022-10-28T19:00:17.289Z,72.58
2022-10-28T19:02:50.210Z,72.70
2022-10-28T19:05:23.769Z,72.69
2022-10-28T19:07:54.975Z,72.68
2022-10-28T19:10:30.063Z,72.88
2022-10-28T19:13:07.155Z,72.99
2022-10-28T19:15:49.887Z,73.13
2022-10-28T19:18:22.135Z,73.24
2022-10-28T19:20:57.058Z,73.38
2022-10-28T19:23:27.847Z,73.41
2022-10-28T19:25:59.124Z,73.58
2022-10-28T19:28:30.364Z,73.66
2022-10-28T19:31:07.228Z,73.72
2022-10-28T19:33:39.290Z,73.86
2022-10-28T19:36:14.326Z,73.97
2022-10-28T19:38:45.881Z,74.10
2022-10-28T19:41:18.022Z,74.24
2022-10-28T19:43:50.549Z,74.30
2022-10-28T19:46:26.259Z,74.35
2022-10-28T19:48:59.918Z,74.47
2022-10-28T19:51:32.081Z,74.59
2022-10-28T19:54:06.362Z,74.73
2022-10-28T19:56:39.487Z,74.80
2022-10-28T19:59:11.084Z,74.99
2022-10-28T20:01:43.062Z,75.12
2022-10-28T20:04:14.965Z,75.17
2022-10-28T20:06:46.933Z,75.22
2022-10-28T20:09:21.974Z,75.27
2022-10-28T20:11:54.373Z,75.34
2022-10-28T20:14:25.099Z,75.51
2022-10-28T20:16:55.994Z,75.58
2022-10-28T20:19:26.340Z,75.61
2022-10-28T20:21:58.252Z,75.86
2022-10-28T20:24:30.213Z,76.03
2022-10-28T20:27:02.434Z,76.29
2022-10-28T20:29:35.095Z,76.44
2022-10-28T20:32:06.927Z,76.66
2022-10-28T20:34:38.320Z,76.79
2022-10-28T20:37:09.759Z,76.93
2022-10-28T20:39:43.288Z,76.97
2022-10-28T20:42:18.096Z,77.01
2022-10-28T20:44:49.397Z,77.05
2022-10-28T20:47:23.148Z,77.30
2022-10-28T20:49:55.250Z,77.36
2022-10-28T20:52:26.662Z,77.37
2022-10-28T20:54:57.070Z,77.41
2022-10-28T20:57:27.852Z,77.43
2022-10-28T20:59:58.480Z,77.48
2022-10-28T21:02:29.376Z,77.52
2022-10-28T21:05:00.223Z,77.56
2022-10-28T21:07:32.489Z,77.66
2022-10-28T21:10:03.375Z,77.70
2022-10-28T21:12:34.162Z,77.82
2022-10-28T21:15:05.435Z,77.96
2022-10-28T21:17:35.875Z,77.99
2022-10-28T21:20:07.787Z,78.06
2022-10-28T21:22:38.391Z,78.13
2022-10-28T21:25:10.520Z,78.36
2022-10-28T21:27:41.291Z,78.41
2022-10-28T21:30:14.666Z,78.53
2022-10-28T21:32:45.378Z,78.62
2022-10-28T21:35:16.170Z,78.80
2022-10-28T21:37:46.642Z,78.97
2022-10-28T21:40:17.911Z,79.25
2022-10-28T21:42:52.460Z,79.27
2022-10-28T21:45:24.199Z,79.36
2022-10-28T21:47:58.011Z,79.57
2022-10-28T21:50:28.821Z,80.04
2022-10-28T21:53:03.740Z,80.76
2022-10-28T21:55:46.097Z,80.85
2022-10-28T21:58:19.115Z,80.85
2022-10-28T22:00:50.950Z,80.72
2022-10-28T22:03:21.267Z,80.91
2022-10-28T22:05:55.109Z,80.95
2022-10-28T22:08:25.764Z,80.89
2022-10-28T22:11:02.783Z,80.83
2022-10-28T22:13:33.881Z,80.80
2022-10-28T22:16:09.035Z,80.73
2022-10-28T22:18:40.151Z,80.58
2022-10-28T22:21:13.342Z,80.50
2022-10-28T22:23:44.239Z,80.56
2022-10-28T22:26:17.854Z,80.56
2022-10-28T22:28:48.773Z,80.60
2022-10-28T22:31:22.815Z,80.63
2022-10-28T22:33:53.537Z,80.71
2022-10-28T22:36:26.004Z,80.80
2022-10-28T22:38:57.030Z,80.87
2022-10-28T22:41:29.019Z,80.98
2022-10-28T22:44:01.476Z,81.07
2022-10-28T22:46:34.062Z,81.14
2022-10-28T22:49:04.817Z,81.20
2022-10-28T22:51:35.647Z,81.36
2022-10-28T22:54:07.576Z,81.50
2022-10-28T22:56:39.168Z,81.80
2022-10-28T22:59:09.842Z,82.08
2022-10-28T23:01:40.709Z,82.03
2022-10-28T23:04:13.512Z,82.08
2022-10-28T23:06:44.233Z,82.11
2022-10-28T23:09:14.638Z,82.24
2022-10-28T23:11:45.044Z,82.26
2022-10-28T23:14:15.464Z,82.41
2022-10-28T23:16:46.325Z,82.43
2022-10-28T23:19:16.661Z,82.60
2022-10-28T23:21:47.079Z,82.73
2022-10-28T23:24:17.952Z,82.93
2022-10-28T23:26:48.679Z,83.11
2022-10-28T23:29:19.185Z,83.18
2022-10-28T23:31:49.582Z,83.10
2022-10-28T23:34:19.988Z,83.21
2022-10-28T23:36:54.105Z,83.45
2022-10-28T23:39:24.704Z,83.64
2022-10-28T23:41:55.092Z,83.68
2022-10-28T23:44:25.767Z,83.69
2022-10-28T23:46:56.146Z,83.74
2022-10-28T23:49:26.780Z,83.83
2022-10-28T23:51:57.229Z,84.08
2022-10-28T23:54:27.953Z,84.40
2022-10-28T23:56:58.368Z,84.53
2022-10-28T23:59:29.169Z,84.80
